Terminal Aerodrome Forecast
Issued by NWS

Home | Current Version | Previous Version | Text Only | Print | Product List | Glossary On
Versions: 1 2 3 4 5 6 7 8 9 10 11 12 13 14 15
000
FTUS42 TJSJ 251740
TAFNCM
TAF
TNCM 251740Z 2518/2618 07016KT P6SM BKN020
      TEMPO 2518/2520 3SM TSRA BKN018CB BKN030
     FM252200 08009KT P6SM VCTS BKN018CB BKN035
     FM261300 10011KT P6SM VCSH FEW018 SCT025=

USA.gov is the U.S. government's official web portal to all federal, state and local government web resources and services.